createdAt,value
2019-05-17T00:00:50.504Z,25.60
2019-05-17T00:03:20.958Z,30.13
2019-05-17T00:05:51.261Z,29.33
2019-05-17T00:08:31.945Z,27.17
2019-05-17T00:10:56.942Z,30.60
2019-05-17T00:13:26.937Z,29.33
2019-05-17T00:15:57.595Z,28.90
2019-05-17T00:18:28.326Z,31.23
2019-05-17T00:20:58.951Z,31.47
2019-05-17T00:23:29.422Z,31.13
2019-05-17T00:25:59.758Z,33.23
2019-05-17T00:28:30.428Z,29.60
2019-05-17T00:31:01.077Z,29.70
2019-05-17T00:33:31.437Z,30.73
2019-05-17T00:36:20.883Z,26.70
2019-05-17T00:38:51.760Z,26.40
2019-05-17T00:41:22.121Z,31.50
2019-05-17T00:43:52.575Z,31.83
2019-05-17T00:46:23.174Z,28.40
2019-05-17T00:48:53.602Z,30.27
2019-05-17T00:51:24.326Z,32.20
2019-05-17T00:53:56.243Z,30.90
2019-05-17T00:56:26.770Z,28.93
2019-05-17T00:58:57.057Z,30.50
2019-05-17T01:01:27.495Z,26.73
2019-05-17T01:03:57.872Z,27.17
2019-05-17T01:06:28.382Z,25.17
2019-05-17T01:09:01.859Z,29.10
2019-05-17T01:11:31.342Z,28.23
2019-05-17T01:14:01.793Z,25.97
2019-05-17T01:16:32.239Z,26.63
2019-05-17T01:19:03.266Z,26.90
2019-05-17T01:21:36.560Z,26.10
2019-05-17T01:24:06.840Z,25.47
2019-05-17T01:26:37.525Z,25.73
2019-05-17T01:29:08.148Z,24.70
2019-05-17T01:31:38.803Z,26.83
2019-05-17T01:34:09.209Z,26.30
2019-05-17T01:36:39.815Z,26.07
2019-05-17T01:39:17.684Z,22.53
2019-05-17T01:41:42.656Z,27.80
2019-05-17T01:44:13.032Z,25.87
2019-05-17T01:46:43.394Z,24.17
2019-05-17T01:49:16.283Z,24.47
2019-05-17T01:51:46.507Z,22.83
2019-05-17T01:54:17.660Z,26.10
2019-05-17T01:56:48.211Z,26.27
2019-05-17T01:59:19.008Z,25.23
2019-05-17T02:01:51.077Z,26.10
2019-05-17T02:04:21.407Z,26.27
2019-05-17T02:06:51.865Z,25.47
2019-05-17T02:09:34.782Z,26.17
2019-05-17T02:11:54.480Z,26.67
2019-05-17T02:14:26.730Z,26.90
2019-05-17T02:16:57.401Z,26.47
2019-05-17T02:19:28.200Z,25.80
2019-05-17T02:21:58.570Z,26.57
2019-05-17T02:24:28.911Z,26.80
2019-05-17T02:26:59.267Z,24.50
2019-05-17T02:29:32.028Z,26.10
2019-05-17T02:32:03.821Z,25.83
2019-05-17T02:34:35.044Z,27.43
2019-05-17T02:37:05.805Z,24.70
2019-05-17T02:39:52.480Z,25.63
2019-05-17T02:42:08.307Z,25.83
2019-05-17T02:44:39.082Z,26.47
2019-05-17T02:47:09.512Z,26.13
2019-05-17T02:49:42.482Z,25.80
2019-05-17T02:52:12.612Z,27.43
2019-05-17T02:54:43.858Z,24.67
2019-05-17T02:57:14.600Z,25.23
2019-05-17T02:59:45.316Z,24.10
2019-05-17T03:02:16.149Z,23.67
2019-05-17T03:04:46.795Z,26.57
2019-05-17T03:07:17.237Z,26.37
2019-05-17T03:09:47.964Z,26.93
2019-05-17T03:12:18.597Z,23.77
2019-05-17T03:14:49.012Z,23.97
2019-05-17T03:17:22.698Z,23.80
2019-05-17T03:19:52.952Z,22.40
2019-05-17T03:22:23.917Z,23.87
2019-05-17T03:24:55.286Z,24.27
2019-05-17T03:27:25.693Z,24.27
2019-05-17T03:29:56.199Z,23.67
2019-05-17T03:32:27.404Z,24.27
2019-05-17T03:34:58.213Z,25.00
2019-05-17T03:37:36.682Z,23.73
2019-05-17T03:40:02.949Z,23.00
2019-05-17T03:42:33.881Z,24.23
2019-05-17T03:45:04.352Z,21.60
2019-05-17T03:47:34.717Z,24.17
2019-05-17T03:50:05.327Z,24.97
2019-05-17T03:52:35.676Z,27.50
2019-05-17T03:55:08.778Z,23.63
2019-05-17T03:57:39.143Z,22.77
2019-05-17T04:00:13.092Z,25.37
2019-05-17T04:02:44.399Z,23.93
2019-05-17T04:05:15.019Z,22.77
2019-05-17T04:07:45.362Z,24.10
2019-05-17T04:10:16.202Z,24.43
2019-05-17T04:12:46.881Z,23.80
2019-05-17T04:15:17.854Z,23.40
2019-05-17T04:17:48.312Z,24.70
2019-05-17T04:20:18.680Z,23.57
2019-05-17T04:23:03.813Z,23.33
2019-05-17T04:25:33.813Z,24.83
2019-05-17T04:28:04.319Z,21.93
2019-05-17T04:30:34.670Z,22.27
2019-05-17T04:33:05.059Z,22.03
2019-05-17T04:35:35.376Z,23.77
2019-05-17T04:38:05.852Z,25.37
2019-05-17T04:40:37.147Z,23.43
2019-05-17T04:43:07.487Z,23.07
2019-05-17T04:45:38.510Z,24.73
2019-05-17T04:48:08.859Z,27.73
2019-05-17T04:50:42.840Z,25.03
2019-05-17T04:53:13.438Z,23.87
2019-05-17T04:55:44.436Z,20.60
2019-05-17T04:58:15.113Z,23.80
2019-05-17T05:00:45.967Z,22.30
2019-05-17T05:03:16.760Z,22.30
2019-05-17T05:05:47.709Z,26.20
2019-05-17T05:08:18.084Z,23.07
2019-05-17T05:10:48.739Z,20.90
2019-05-17T05:13:19.118Z,21.10
2019-05-17T05:15:52.023Z,22.63
2019-05-17T05:18:22.287Z,19.30
2019-05-17T05:20:53.143Z,20.20
2019-05-17T05:23:24.019Z,20.10
2019-05-17T05:25:54.603Z,20.10
2019-05-17T05:28:24.946Z,18.97
2019-05-17T05:30:55.376Z,19.87
2019-05-17T05:33:25.777Z,17.73
2019-05-17T05:35:56.121Z,17.97
2019-05-17T05:38:26.719Z,19.43
2019-05-17T05:40:57.672Z,17.60
2019-05-17T05:43:28.040Z,18.13
2019-05-17T05:45:58.479Z,18.23
2019-05-17T05:48:29.395Z,17.43
2019-05-17T05:51:03.049Z,15.33
2019-05-17T05:53:32.706Z,18.20
2019-05-17T05:56:03.710Z,17.10
2019-05-17T05:58:34.181Z,16.07
2019-05-17T06:01:04.949Z,16.20
2019-05-17T06:03:35.296Z,16.87
2019-05-17T06:06:05.650Z,16.03
2019-05-17T06:08:36.176Z,16.77
2019-05-17T06:11:06.535Z,15.80
2019-05-17T06:13:36.883Z,16.50
2019-05-17T06:16:07.240Z,15.27
2019-05-17T06:18:37.597Z,15.07
2019-05-17T06:21:07.989Z,16.70
2019-05-17T06:23:38.337Z,14.83
2019-05-17T06:26:08.787Z,14.10
2019-05-17T06:28:39.435Z,14.00
2019-05-17T06:31:10.199Z,13.50
2019-05-17T06:33:42.153Z,14.60
2019-05-17T06:36:13.653Z,13.93
2019-05-17T06:38:44.343Z,12.67
2019-05-17T06:41:15.177Z,13.77
2019-05-17T06:43:45.649Z,13.37
2019-05-17T06:46:16.327Z,13.33
2019-05-17T06:48:46.697Z,15.17
2019-05-17T06:51:17.179Z,13.67
2019-05-17T06:53:47.525Z,17.07
2019-05-17T06:56:17.933Z,15.47
2019-05-17T06:58:48.848Z,15.00
2019-05-17T07:01:21.753Z,15.43
2019-05-17T07:03:52.612Z,14.57
2019-05-17T07:06:24.922Z,14.23
2019-05-17T07:08:55.447Z,13.77
2019-05-17T07:11:25.813Z,14.20
2019-05-17T07:13:56.978Z,14.27
2019-05-17T07:16:27.410Z,14.93
2019-05-17T07:18:59.736Z,14.93
2019-05-17T07:21:29.890Z,15.47
2019-05-17T07:24:00.289Z,15.20
2019-05-17T07:26:30.956Z,14.93
2019-05-17T07:29:01.365Z,15.60
2019-05-17T07:31:31.808Z,14.90
2019-05-17T07:34:02.229Z,15.43
2019-05-17T07:36:33.271Z,15.03
2019-05-17T07:39:05.252Z,12.80
2019-05-17T07:41:35.684Z,12.50
2019-05-17T07:44:06.709Z,12.43
2019-05-17T07:46:37.090Z,12.33
2019-05-17T07:49:07.448Z,12.80
2019-05-17T07:51:43.518Z,19.67
2019-05-17T07:54:13.965Z,12.17
2019-05-17T07:56:44.376Z,12.73
2019-05-17T07:59:14.712Z,12.17
2019-05-17T08:01:45.201Z,15.83
2019-05-17T08:04:15.659Z,11.83
2019-05-17T08:06:46.085Z,11.40
2019-05-17T08:09:16.499Z,12.47
2019-05-17T08:11:46.962Z,12.27
2019-05-17T08:14:27.514Z,10.80
2019-05-17T08:16:50.255Z,10.57
2019-05-17T08:19:20.990Z,11.13
2019-05-17T08:21:59.687Z,11.30
2019-05-17T08:24:30.399Z,11.47
2019-05-17T08:27:00.811Z,10.93
2019-05-17T08:29:31.183Z,11.23
2019-05-17T08:32:03.813Z,11.13
2019-05-17T08:34:36.277Z,11.73
2019-05-17T08:37:09.400Z,10.77
2019-05-17T08:39:39.974Z,11.00
2019-05-17T08:42:10.667Z,11.57
2019-05-17T08:44:41.097Z,12.57
2019-05-17T08:47:11.518Z,11.93
2019-05-17T08:49:46.307Z,12.20
2019-05-17T08:52:16.676Z,11.87
2019-05-17T08:54:52.924Z,12.33
2019-05-17T08:57:30.429Z,12.87
2019-05-17T09:00:01.281Z,12.07
2019-05-17T09:02:40.471Z,11.87
2019-05-17T09:05:13.030Z,11.33
2019-05-17T09:07:52.745Z,11.87
2019-05-17T09:10:23.125Z,11.60
2019-05-17T09:12:53.868Z,11.40
2019-05-17T09:15:24.306Z,12.50
2019-05-17T09:17:55.085Z,12.73
2019-05-17T09:20:25.541Z,12.13
2019-05-17T09:22:55.916Z,13.60
2019-05-17T09:25:26.581Z,11.33
2019-05-17T09:27:57.294Z,11.70
2019-05-17T09:30:31.152Z,11.60
2019-05-17T09:33:01.228Z,11.53
2019-05-17T09:35:36.022Z,11.83
2019-05-17T09:38:11.424Z,11.67
2019-05-17T09:40:42.359Z,11.90
2019-05-17T09:43:17.471Z,11.57
2019-05-17T09:45:50.436Z,15.27
2019-05-17T09:48:26.643Z,11.53
2019-05-17T09:50:59.733Z,11.00
2019-05-17T09:53:32.185Z,12.90
2019-05-17T09:56:02.626Z,13.23
2019-05-17T09:58:33.020Z,13.70
2019-05-17T10:01:03.442Z,13.13
2019-05-17T10:03:33.905Z,12.50
2019-05-17T10:06:12.493Z,12.70
2019-05-17T10:08:42.897Z,13.33
2019-05-17T10:11:13.534Z,13.57
2019-05-17T10:13:44.622Z,12.90
2019-05-17T10:16:15.018Z,13.27
2019-05-17T10:18:45.570Z,12.67
2019-05-17T10:21:16.099Z,13.13
2019-05-17T10:23:46.608Z,11.83
2019-05-17T10:26:19.746Z,11.73
2019-05-17T10:28:51.633Z,11.33
2019-05-17T10:31:22.288Z,12.07
2019-05-17T10:33:58.194Z,10.73
2019-05-17T10:36:29.354Z,10.57
2019-05-17T10:38:59.780Z,11.10
2019-05-17T10:41:30.261Z,13.63
2019-05-17T10:44:01.573Z,10.67
2019-05-17T10:46:32.585Z,11.80
2019-05-17T10:49:04.267Z,11.13
2019-05-17T10:51:35.000Z,12.20
2019-05-17T10:54:06.146Z,13.67
2019-05-17T10:56:36.959Z,11.17
2019-05-17T10:59:09.823Z,10.10
2019-05-17T11:01:40.147Z,13.77
2019-05-17T11:04:10.617Z,13.10
2019-05-17T11:06:41.018Z,11.57
2019-05-17T11:09:11.447Z,11.00
2019-05-17T11:11:41.912Z,12.43
2019-05-17T11:14:12.934Z,12.67
2019-05-17T11:16:43.712Z,12.10
2019-05-17T11:19:14.204Z,14.57
2019-05-17T11:21:45.205Z,11.90
2019-05-17T11:24:15.946Z,12.10
2019-05-17T11:26:46.722Z,13.17
2019-05-17T11:29:17.150Z,12.80
2019-05-17T11:31:47.984Z,11.50
2019-05-17T11:34:18.840Z,11.43
2019-05-17T11:36:50.384Z,12.50
2019-05-17T11:39:21.195Z,11.53
2019-05-17T11:41:51.572Z,13.37
2019-05-17T11:44:22.062Z,13.00
2019-05-17T11:46:53.715Z,13.17
2019-05-17T11:49:25.270Z,14.17
2019-05-17T11:51:56.699Z,13.63
2019-05-17T11:54:27.635Z,13.23
2019-05-17T11:57:02.696Z,12.57
2019-05-17T11:59:33.165Z,12.57
2019-05-17T12:02:04.013Z,12.47
2019-05-17T12:04:34.474Z,14.60
2019-05-17T12:07:04.951Z,14.17
2019-05-17T12:09:37.679Z,13.07
2019-05-17T12:12:07.821Z,13.13
2019-05-17T12:14:38.215Z,12.70
2019-05-17T12:17:18.355Z,12.67
2019-05-17T12:19:50.452Z,12.43
2019-05-17T12:22:20.853Z,12.53
2019-05-17T12:24:51.385Z,11.67
2019-05-17T12:27:21.847Z,11.53
2019-05-17T12:30:00.369Z,11.80
2019-05-17T12:32:33.595Z,13.70
2019-05-17T12:35:07.036Z,11.63
2019-05-17T12:37:42.381Z,12.33
2019-05-17T12:40:12.521Z,11.90
2019-05-17T12:42:44.008Z,11.20
2019-05-17T12:45:14.924Z,12.27
2019-05-17T12:47:46.190Z,12.13
2019-05-17T12:50:16.839Z,12.53
2019-05-17T12:52:47.651Z,12.07
2019-05-17T12:55:19.565Z,11.67
2019-05-17T12:57:50.073Z,12.60
2019-05-17T13:00:22.042Z,11.63
2019-05-17T13:02:52.982Z,11.93
2019-05-17T13:05:23.687Z,12.40
2019-05-17T13:07:55.564Z,12.33
2019-05-17T13:10:26.223Z,12.30
2019-05-17T13:12:57.167Z,12.90
2019-05-17T13:15:27.871Z,12.27
2019-05-17T13:17:59.056Z,12.73
2019-05-17T13:20:29.514Z,13.03
2019-05-17T13:23:04.451Z,13.47
2019-05-17T13:25:34.911Z,12.50
2019-05-17T13:28:06.719Z,12.53
2019-05-17T13:30:37.395Z,12.97
2019-05-17T13:33:07.801Z,12.13
2019-05-17T13:35:38.416Z,13.27
2019-05-17T13:38:08.869Z,12.73
2019-05-17T13:40:40.175Z,12.37
2019-05-17T13:43:10.592Z,12.63
2019-05-17T13:45:43.897Z,12.00
2019-05-17T13:48:13.404Z,11.83
2019-05-17T13:50:44.171Z,11.10
2019-05-17T13:53:14.604Z,11.40
2019-05-17T13:55:51.804Z,11.93
2019-05-17T13:58:22.567Z,11.37
2019-05-17T14:00:53.311Z,11.50
2019-05-17T14:03:23.725Z,10.83
2019-05-17T14:05:54.329Z,10.57
2019-05-17T14:08:24.668Z,9.90
2019-05-17T14:10:55.277Z,9.60
2019-05-17T14:13:25.765Z,8.50
2019-05-17T14:15:56.419Z,8.63
2019-05-17T14:18:28.866Z,10.23
2019-05-17T14:20:59.904Z,9.43
2019-05-17T14:23:30.305Z,10.27
2019-05-17T14:26:00.912Z,10.73
2019-05-17T14:28:31.315Z,11.53
2019-05-17T14:31:01.807Z,9.83
2019-05-17T14:33:32.500Z,8.93
2019-05-17T14:36:02.855Z,8.03
2019-05-17T14:38:33.258Z,8.50
2019-05-17T14:41:07.813Z,9.73
2019-05-17T14:43:36.052Z,9.57
2019-05-17T14:46:06.425Z,10.47
2019-05-17T14:48:37.504Z,10.37
2019-05-17T14:51:08.239Z,11.03
2019-05-17T14:53:38.611Z,10.60
2019-05-17T14:56:09.021Z,10.77
2019-05-17T14:58:39.639Z,10.50
2019-05-17T15:01:12.065Z,9.83
2019-05-17T15:03:42.445Z,12.03
2019-05-17T15:06:13.450Z,9.40
2019-05-17T15:08:43.905Z,10.67
2019-05-17T15:11:14.649Z,11.03
2019-05-17T15:13:45.086Z,11.10
2019-05-17T15:16:15.414Z,10.37
2019-05-17T15:18:45.859Z,11.60
2019-05-17T15:21:16.856Z,11.57
2019-05-17T15:23:47.321Z,11.47
2019-05-17T15:26:17.729Z,11.33
2019-05-17T15:28:48.133Z,10.67
2019-05-17T15:31:18.858Z,13.27
2019-05-17T15:33:49.593Z,10.67
2019-05-17T15:36:19.933Z,10.57
2019-05-17T15:38:50.770Z,11.30
2019-05-17T15:41:21.271Z,9.60
2019-05-17T15:43:51.716Z,9.97
2019-05-17T15:46:22.066Z,10.10
2019-05-17T15:48:52.716Z,10.87
2019-05-17T15:51:23.224Z,11.00
2019-05-17T15:53:53.626Z,10.47
2019-05-17T15:56:24.631Z,11.10
2019-05-17T15:58:54.960Z,10.97
2019-05-17T16:01:26.073Z,12.40
2019-05-17T16:03:59.344Z,10.97
2019-05-17T16:06:30.457Z,9.80
2019-05-17T16:09:01.228Z,9.27
2019-05-17T16:11:31.653Z,9.73
2019-05-17T16:14:02.004Z,10.23
2019-05-17T16:16:32.792Z,9.80
2019-05-17T16:19:03.573Z,11.57
2019-05-17T16:21:34.531Z,11.83
2019-05-17T16:24:05.277Z,12.17
2019-05-17T16:26:35.614Z,9.83
2019-05-17T16:29:05.979Z,12.20
2019-05-17T16:31:36.406Z,11.97
2019-05-17T16:34:07.160Z,12.00
2019-05-17T16:36:37.696Z,10.90
2019-05-17T16:39:08.728Z,12.03
2019-05-17T16:41:39.423Z,14.60
2019-05-17T16:44:09.887Z,11.40
2019-05-17T16:46:40.379Z,11.90
2019-05-17T16:49:11.115Z,12.50
2019-05-17T16:51:41.474Z,11.37
2019-05-17T16:54:12.154Z,12.57
2019-05-17T16:56:42.517Z,13.50
2019-05-17T16:59:13.025Z,11.67
2019-05-17T17:01:43.449Z,11.23
2019-05-17T17:04:13.977Z,11.30
2019-05-17T17:06:44.353Z,12.13
2019-05-17T17:09:14.799Z,12.43
2019-05-17T17:11:45.768Z,12.90
2019-05-17T17:14:18.423Z,12.33
2019-05-17T17:16:48.961Z,11.93
2019-05-17T17:19:19.712Z,11.50
2019-05-17T17:21:50.459Z,12.03
2019-05-17T17:24:21.599Z,10.87
2019-05-17T17:26:52.014Z,12.07
2019-05-17T17:29:22.563Z,11.50
2019-05-17T17:31:52.945Z,11.37
2019-05-17T17:34:23.879Z,11.47
2019-05-17T17:36:54.481Z,10.57
2019-05-17T17:39:25.153Z,11.27
2019-05-17T17:41:55.546Z,10.97
2019-05-17T17:44:38.276Z,12.00
2019-05-17T17:47:08.637Z,13.77
2019-05-17T17:49:39.841Z,11.93
2019-05-17T17:52:10.363Z,11.93
2019-05-17T17:54:41.398Z,12.33
2019-05-17T17:57:11.842Z,12.07
2019-05-17T17:59:42.530Z,12.57
2019-05-17T18:02:13.269Z,13.03
2019-05-17T18:04:44.078Z,12.57
2019-05-17T18:07:14.488Z,12.20
2019-05-17T18:09:44.839Z,13.10
2019-05-17T18:12:15.207Z,12.70
2019-05-17T18:14:45.588Z,13.27
2019-05-17T18:17:16.239Z,13.17
2019-05-17T18:19:46.895Z,13.17
2019-05-17T18:22:17.546Z,14.17
2019-05-17T18:24:48.438Z,13.47
2019-05-17T18:27:18.879Z,13.70
2019-05-17T18:29:49.281Z,14.13
2019-05-17T18:32:20.215Z,13.47
2019-05-17T18:34:51.017Z,17.37
2019-05-17T18:37:21.498Z,13.53
2019-05-17T18:39:51.840Z,13.33
2019-05-17T18:42:23.475Z,12.67
2019-05-17T18:44:53.904Z,13.33
2019-05-17T18:47:24.752Z,14.30
2019-05-17T18:49:55.536Z,13.57
2019-05-17T18:52:25.974Z,14.67
2019-05-17T18:54:56.383Z,13.80
2019-05-17T18:57:26.793Z,13.90
2019-05-17T18:59:57.667Z,13.80
2019-05-17T19:02:28.015Z,12.77
2019-05-17T19:04:58.884Z,14.57
2019-05-17T19:07:29.541Z,13.80
2019-05-17T19:10:00.077Z,13.40
2019-05-17T19:12:30.420Z,13.47
2019-05-17T19:15:00.909Z,14.23
2019-05-17T19:17:31.323Z,14.07
2019-05-17T19:20:01.703Z,12.27
2019-05-17T19:22:32.049Z,12.57
2019-05-17T19:25:02.506Z,13.47
2019-05-17T19:27:33.498Z,13.93
2019-05-17T19:30:04.925Z,13.70
2019-05-17T19:32:35.293Z,12.67
2019-05-17T19:35:06.817Z,13.27
2019-05-17T19:37:50.517Z,13.43
2019-05-17T19:40:21.673Z,13.20
2019-05-17T19:42:52.225Z,12.53
2019-05-17T19:45:22.867Z,13.83
2019-05-17T19:47:53.651Z,13.80
2019-05-17T19:50:24.073Z,13.00
2019-05-17T19:52:54.665Z,13.87
2019-05-17T19:55:26.047Z,12.20
2019-05-17T19:57:56.824Z,13.70
2019-05-17T20:00:27.478Z,13.50
2019-05-17T20:02:57.847Z,15.93
2019-05-17T20:05:28.297Z,14.00
2019-05-17T20:07:59.021Z,14.87
2019-05-17T20:10:29.496Z,14.37
2019-05-17T20:12:59.913Z,13.43
2019-05-17T20:15:34.591Z,13.03
2019-05-17T20:18:03.180Z,13.37
2019-05-17T20:20:33.544Z,13.80
2019-05-17T20:23:04.212Z,13.07
2019-05-17T20:25:34.624Z,13.10
2019-05-17T20:28:05.194Z,14.43
2019-05-17T20:30:35.892Z,14.07
2019-05-17T20:33:06.256Z,13.93
2019-05-17T20:35:36.761Z,13.17
2019-05-17T20:38:07.138Z,14.27
2019-05-17T20:40:37.806Z,14.30
2019-05-17T20:43:08.401Z,14.60
2019-05-17T20:45:38.735Z,13.20
2019-05-17T20:48:09.334Z,14.03
2019-05-17T20:50:39.718Z,14.43
2019-05-17T20:53:18.431Z,14.63
2019-05-17T20:55:42.626Z,14.10
2019-05-17T20:58:13.706Z,13.60
2019-05-17T21:00:44.556Z,14.27
2019-05-17T21:03:14.937Z,14.83
2019-05-17T21:05:45.348Z,14.90
2019-05-17T21:08:16.158Z,14.10
2019-05-17T21:10:46.507Z,16.13
2019-05-17T21:13:17.157Z,13.70
2019-05-17T21:15:48.318Z,17.07
2019-05-17T21:18:18.754Z,13.37
2019-05-17T21:20:49.134Z,15.90
2019-05-17T21:23:19.563Z,16.90
2019-05-17T21:25:49.990Z,14.17
2019-05-17T21:28:20.536Z,14.10
2019-05-17T21:30:50.924Z,12.90
2019-05-17T21:33:21.360Z,14.67
2019-05-17T21:35:51.775Z,14.37
2019-05-17T21:38:22.443Z,13.53
2019-05-17T21:40:52.814Z,14.30
2019-05-17T21:43:24.228Z,14.63
2019-05-17T21:46:04.115Z,14.17
2019-05-17T21:48:33.718Z,15.03
2019-05-17T21:51:04.421Z,14.03
2019-05-17T21:53:35.041Z,13.97
2019-05-17T21:56:05.746Z,14.40
2019-05-17T21:58:36.105Z,14.77
2019-05-17T22:01:18.320Z,14.60
2019-05-17T22:03:49.469Z,13.87
2019-05-17T22:06:19.986Z,15.10
2019-05-17T22:08:51.075Z,14.73
2019-05-17T22:11:21.697Z,13.87
2019-05-17T22:13:52.077Z,14.17
2019-05-17T22:16:22.507Z,14.53
2019-05-17T22:18:53.190Z,14.33
2019-05-17T22:21:23.569Z,12.93
2019-05-17T22:23:53.958Z,14.20
2019-05-17T22:26:24.616Z,14.70
2019-05-17T22:28:54.959Z,14.27
2019-05-17T22:31:25.369Z,13.73
2019-05-17T22:33:56.166Z,13.57
2019-05-17T22:36:26.926Z,14.00
2019-05-17T22:38:57.388Z,13.50
2019-05-17T22:41:27.817Z,12.57
2019-05-17T22:44:01.619Z,13.53
2019-05-17T22:46:35.921Z,12.47
2019-05-17T22:49:12.540Z,12.67
2019-05-17T22:51:43.223Z,12.13
2019-05-17T22:54:14.345Z,12.00
2019-05-17T22:56:44.761Z,14.07
2019-05-17T22:59:15.139Z,13.20
2019-05-17T23:01:45.569Z,12.03
2019-05-17T23:04:15.972Z,17.63
2019-05-17T23:06:46.637Z,13.53
2019-05-17T23:09:17.611Z,14.97
2019-05-17T23:11:47.981Z,13.23
2019-05-17T23:14:18.631Z,14.03
2019-05-17T23:16:51.962Z,13.90
2019-05-17T23:19:21.338Z,15.47
2019-05-17T23:21:51.737Z,16.60
2019-05-17T23:24:22.218Z,14.77
2019-05-17T23:26:53.262Z,14.77
2019-05-17T23:29:23.616Z,13.27
2019-05-17T23:31:53.982Z,14.30
2019-05-17T23:34:24.367Z,12.70
2019-05-17T23:36:54.776Z,14.53
2019-05-17T23:39:25.148Z,13.97
2019-05-17T23:41:55.525Z,12.90
2019-05-17T23:44:25.929Z,13.17
2019-05-17T23:47:06.724Z,17.03
2019-05-17T23:49:29.265Z,14.67
2019-05-17T23:51:59.995Z,15.17
2019-05-17T23:54:30.507Z,15.03
2019-05-17T23:57:01.318Z,15.40
2019-05-17T23:59:31.703Z,14.47
